sensor_id;sensor_type;location;lat;lon;timestamp;pressure;altitude;pressure_sealevel;temperature;humidity
70921;BME280;58572;48.110;19.838;2023-03-23T00:01:04;97639.16;;;8.49;67.51
70921;BME280;58572;48.110;19.838;2023-03-23T00:03:32;97648.94;;;8.09;68.73
70921;BME280;58572;48.110;19.838;2023-03-23T00:05:59;97645.69;;;8.17;69.52
70921;BME280;58572;48.110;19.838;2023-03-23T00:08:31;97523.72;;;7.27;68.93
70921;BME280;58572;48.110;19.838;2023-03-23T00:10:59;97646.53;;;7.97;69.97
70921;BME280;58572;48.110;19.838;2023-03-23T00:13:28;97643.81;;;8.02;69.18
70921;BME280;58572;48.110;19.838;2023-03-23T00:15:56;97619.22;;;7.68;70.04
70921;BME280;58572;48.110;19.838;2023-03-23T00:18:26;97636.25;;;7.84;71.02
70921;BME280;58572;48.110;19.838;2023-03-23T00:20:54;97632.19;;;7.92;70.07
70921;BME280;58572;48.110;19.838;2023-03-23T00:23:24;97631.94;;;7.88;70.40
70921;BME280;58572;48.110;19.838;2023-03-23T00:25:54;97637.59;;;7.92;70.69
70921;BME280;58572;48.110;19.838;2023-03-23T00:28:23;97630.03;;;7.79;71.55
70921;BME280;58572;48.110;19.838;2023-03-23T00:30:56;97623.81;;;7.83;70.83
70921;BME280;58572;48.110;19.838;2023-03-23T00:33:24;97631.66;;;7.75;70.97
70921;BME280;58572;48.110;19.838;2023-03-23T00:35:52;97628.69;;;7.81;70.18
70921;BME280;58572;48.110;19.838;2023-03-23T00:38:20;97533.47;;;7.13;70.72
70921;BME280;58572;48.110;19.838;2023-03-23T00:40:47;97631.38;;;7.91;70.03
70921;BME280;58572;48.110;19.838;2023-03-23T00:43:16;97559.97;;;7.21;70.62
70921;BME280;58572;48.110;19.838;2023-03-23T00:45:44;97627.88;;;7.71;71.25
70921;BME280;58572;48.110;19.838;2023-03-23T00:48:15;97618.13;;;7.69;70.81
70921;BME280;58572;48.110;19.838;2023-03-23T00:50:42;97621.38;;;7.72;70.62
70921;BME280;58572;48.110;19.838;2023-03-23T00:53:09;97614.88;;;7.78;70.71
70921;BME280;58572;48.110;19.838;2023-03-23T00:55:36;97617.84;;;7.86;70.10
70921;BME280;58572;48.110;19.838;2023-03-23T00:58:03;97615.16;;;7.76;70.54
70921;BME280;58572;48.110;19.838;2023-03-23T01:00:32;97608.13;;;7.65;71.24
70921;BME280;58572;48.110;19.838;2023-03-23T01:02:59;97616.50;;;7.68;70.88
70921;BME280;58572;48.110;19.838;2023-03-23T01:05:26;97616.78;;;7.62;70.84
70921;BME280;58572;48.110;19.838;2023-03-23T01:07:57;97612.19;;;7.42;71.61
70921;BME280;58572;48.110;19.838;2023-03-23T01:10:25;97614.09;;;7.57;70.86
70921;BME280;58572;48.110;19.838;2023-03-23T01:12:52;97603.78;;;7.74;70.84
70921;BME280;58572;48.110;19.838;2023-03-23T01:15:20;97606.22;;;7.76;70.82
70921;BME280;58572;48.110;19.838;2023-03-23T01:17:49;97604.06;;;7.57;70.60
70921;BME280;58572;48.110;19.838;2023-03-23T01:20:16;97527.25;;;7.23;70.24
70921;BME280;58572;48.110;19.838;2023-03-23T01:22:43;97594.88;;;7.68;69.92
70921;BME280;58572;48.110;19.838;2023-03-23T01:25:11;97594.88;;;7.58;71.29
70921;BME280;58572;48.110;19.838;2023-03-23T01:27:40;97554.31;;;7.43;70.32
70921;BME280;58572;48.110;19.838;2023-03-23T01:30:09;97600.00;;;7.55;70.51
70921;BME280;58572;48.110;19.838;2023-03-23T01:32:37;97600.56;;;7.42;70.87
70921;BME280;58572;48.110;19.838;2023-03-23T01:35:07;97602.19;;;7.38;71.50
70921;BME280;58572;48.110;19.838;2023-03-23T01:37:35;97596.78;;;7.58;70.21
70921;BME280;58572;48.110;19.838;2023-03-23T01:40:02;97597.84;;;7.57;71.09
70921;BME280;58572;48.110;19.838;2023-03-23T01:42:32;97606.25;;;7.45;71.37
70921;BME280;58572;48.110;19.838;2023-03-23T01:45:29;97599.75;;;7.56;71.31
70921;BME280;58572;48.110;19.838;2023-03-23T01:48:07;97592.66;;;8.01;68.17
70921;BME280;58572;48.110;19.838;2023-03-23T01:50:42;97487.78;;;6.91;70.13
70921;BME280;58572;48.110;19.838;2023-03-23T01:53:11;97597.59;;;7.58;70.66
70921;BME280;58572;48.110;19.838;2023-03-23T01:55:40;97596.50;;;7.59;70.95
70921;BME280;58572;48.110;19.838;2023-03-23T01:58:09;97600.00;;;7.70;70.01
70921;BME280;58572;48.110;19.838;2023-03-23T02:00:38;97466.41;;;6.64;69.83
70921;BME280;58572;48.110;19.838;2023-03-23T02:03:08;97603.78;;;7.84;68.86
70921;BME280;58572;48.110;19.838;2023-03-23T02:05:41;97597.84;;;7.67;69.29
70921;BME280;58572;48.110;19.838;2023-03-23T02:08:09;97599.75;;;7.41;70.44
70921;BME280;58572;48.110;19.838;2023-03-23T02:10:39;97600.81;;;7.45;70.91
70921;BME280;58572;48.110;19.838;2023-03-23T02:13:08;97600.84;;;7.55;70.14
70921;BME280;58572;48.110;19.838;2023-03-23T02:15:54;97603.00;;;7.33;70.60
70921;BME280;58572;48.110;19.838;2023-03-23T02:18:31;97610.28;;;7.43;69.98
70921;BME280;58572;48.110;19.838;2023-03-23T02:27:14;97553.47;;;7.02;70.86
70921;BME280;58572;48.110;19.838;2023-03-23T02:30:14;97618.91;;;7.19;71.04
70921;BME280;58572;48.110;19.838;2023-03-23T02:35:50;97614.03;;;7.16;72.08
70921;BME280;58572;48.110;19.838;2023-03-23T02:38:22;97619.72;;;7.25;71.00
70921;BME280;58572;48.110;19.838;2023-03-23T02:40:54;97625.94;;;7.25;70.99
70921;BME280;58572;48.110;19.838;2023-03-23T02:43:25;97621.84;;;7.13;71.83
70921;BME280;58572;48.110;19.838;2023-03-23T02:45:55;97634.31;;;7.19;71.50
70921;BME280;58572;48.110;19.838;2023-03-23T02:48:28;97621.59;;;7.24;70.90
70921;BME280;58572;48.110;19.838;2023-03-23T02:50:58;97624.31;;;7.19;71.73
70921;BME280;58572;48.110;19.838;2023-03-23T02:53:26;97625.38;;;7.13;71.76
70921;BME280;58572;48.110;19.838;2023-03-23T02:55:57;97624.03;;;7.26;71.24
70921;BME280;58572;48.110;19.838;2023-03-23T02:58:27;97625.69;;;7.32;70.68
70921;BME280;58572;48.110;19.838;2023-03-23T03:00:55;97628.94;;;7.29;70.72
70921;BME280;58572;48.110;19.838;2023-03-23T03:03:23;97601.28;;;6.91;71.95
70921;BME280;58572;48.110;19.838;2023-03-23T03:06:02;97561.78;;;6.70;71.88
70921;BME280;58572;48.110;19.838;2023-03-23T03:08:35;97616.47;;;7.23;71.26
70921;BME280;58572;48.110;19.838;2023-03-23T03:11:08;97599.16;;;7.14;70.82
70921;BME280;58572;48.110;19.838;2023-03-23T03:13:45;97626.50;;;7.32;70.29
70921;BME280;58572;48.110;19.838;2023-03-23T03:16:22;97625.16;;;7.45;69.59
70921;BME280;58572;48.110;19.838;2023-03-23T03:18:55;97513.13;;;6.60;70.06
70921;BME280;58572;48.110;19.838;2023-03-23T03:21:27;97618.06;;;7.19;70.44
70921;BME280;58572;48.110;19.838;2023-03-23T03:23:56;97621.59;;;7.19;70.73
70921;BME280;58572;48.110;19.838;2023-03-23T03:26:27;97630.56;;;7.30;70.55
70921;BME280;58572;48.110;19.838;2023-03-23T03:28:55;97632.16;;;7.26;70.72
70921;BME280;58572;48.110;19.838;2023-03-23T03:31:26;97631.84;;;7.07;71.63
70921;BME280;58572;48.110;19.838;2023-03-23T03:33:54;97623.75;;;7.12;71.39
70921;BME280;58572;48.110;19.838;2023-03-23T03:36:23;97619.69;;;7.10;71.34
70921;BME280;58572;48.110;19.838;2023-03-23T03:38:54;97621.59;;;7.19;71.87
70921;BME280;58572;48.110;19.838;2023-03-23T03:41:22;97635.31;;;6.92;72.54
70921;BME280;58572;48.110;19.838;2023-03-23T03:43:49;97627.25;;;7.08;72.39
70921;BME280;58572;48.110;19.838;2023-03-23T03:46:16;97338.28;;;5.17;71.60
70921;BME280;58572;48.110;19.838;2023-03-23T03:48:43;97431.56;;;5.75;72.19
70921;BME280;58572;48.110;19.838;2023-03-23T03:51:11;97622.94;;;7.07;72.05
70921;BME280;58572;48.110;19.838;2023-03-23T03:53:37;97634.81;;;7.00;71.90
70921;BME280;58572;48.110;19.838;2023-03-23T03:56:06;97634.25;;;6.98;72.09
70921;BME280;58572;48.110;19.838;2023-03-23T03:58:34;97633.19;;;7.04;71.98
70921;BME280;58572;48.110;19.838;2023-03-23T04:01:02;97629.16;;;7.12;71.20
70921;BME280;58572;48.110;19.838;2023-03-23T04:03:29;97635.09;;;7.09;71.69
70921;BME280;58572;48.110;19.838;2023-03-23T04:05:56;97637.53;;;7.11;71.93
70921;BME280;58572;48.110;19.838;2023-03-23T04:08:25;97634.91;;;7.41;69.87
70921;BME280;58572;48.110;19.838;2023-03-23T04:10:52;97635.34;;;7.02;71.58
70921;BME280;58572;48.110;19.838;2023-03-23T04:13:21;97631.56;;;7.03;71.91
70921;BME280;58572;48.110;19.838;2023-03-23T04:15:48;97622.84;;;6.81;73.09
70921;BME280;58572;48.110;19.838;2023-03-23T04:18:16;97630.47;;;6.99;71.88
70921;BME280;58572;48.110;19.838;2023-03-23T04:20:46;97631.53;;;6.88;72.78
70921;BME280;58572;48.110;19.838;2023-03-23T04:23:14;97631.00;;;6.96;72.49
70921;BME280;58572;48.110;19.838;2023-03-23T04:25:45;97628.34;;;7.17;71.45
70921;BME280;58572;48.110;19.838;2023-03-23T04:28:12;97627.00;;;7.24;70.94
70921;BME280;58572;48.110;19.838;2023-03-23T04:30:43;97623.53;;;7.39;70.52
70921;BME280;58572;48.110;19.838;2023-03-23T04:33:11;97627.81;;;7.25;70.48
70921;BME280;58572;48.110;19.838;2023-03-23T04:35:40;97634.28;;;7.03;71.97
70921;BME280;58572;48.110;19.838;2023-03-23T04:38:07;97598.59;;;7.12;70.89
70921;BME280;58572;48.110;19.838;2023-03-23T04:40:36;97624.81;;;7.11;70.74
70921;BME280;58572;48.110;19.838;2023-03-23T04:43:03;97621.31;;;7.11;71.63
70921;BME280;58572;48.110;19.838;2023-03-23T04:45:32;97548.84;;;6.82;69.85
70921;BME280;58572;48.110;19.838;2023-03-23T04:48:00;97625.34;;;7.03;71.79
70921;BME280;58572;48.110;19.838;2023-03-23T04:50:31;97623.22;;;7.25;70.74
70921;BME280;58572;48.110;19.838;2023-03-23T04:53:00;97618.06;;;7.19;70.59
70921;BME280;58572;48.110;19.838;2023-03-23T04:55:30;97617.06;;;7.35;70.68
70921;BME280;58572;48.110;19.838;2023-03-23T04:57:57;97617.06;;;7.45;70.10
70921;BME280;58572;48.110;19.838;2023-03-23T05:00:26;97626.19;;;7.24;70.97
70921;BME280;58572;48.110;19.838;2023-03-23T05:02:54;97619.97;;;7.23;71.48
70921;BME280;58572;48.110;19.838;2023-03-23T05:05:23;97606.19;;;7.25;70.95
70921;BME280;58572;48.110;19.838;2023-03-23T05:07:50;97631.13;;;7.37;71.07
70921;BME280;58572;48.110;19.838;2023-03-23T05:10:18;97620.84;;;7.44;70.68
70921;BME280;58572;48.110;19.838;2023-03-23T05:12:45;97624.91;;;7.47;70.94
70921;BME280;58572;48.110;19.838;2023-03-23T05:15:14;97557.75;;;6.88;71.71
70921;BME280;58572;48.110;19.838;2023-03-23T05:17:41;97515.06;;;6.80;70.95
70921;BME280;58572;48.110;19.838;2023-03-23T05:20:10;97620.56;;;7.71;68.46
70921;BME280;58572;48.110;19.838;2023-03-23T05:22:40;97616.47;;;8.09;67.81
70921;BME280;58572;48.110;19.838;2023-03-23T05:25:08;97624.38;;;7.60;68.75
70921;BME280;58572;48.110;19.838;2023-03-23T05:27:36;97619.75;;;7.81;70.38
70921;BME280;58572;48.110;19.838;2023-03-23T05:30:04;97622.47;;;7.55;71.87
70921;BME280;58572;48.110;19.838;2023-03-23T05:32:32;97625.69;;;7.98;69.75
70921;BME280;58572;48.110;19.838;2023-03-23T05:35:00;97625.72;;;7.78;71.19
70921;BME280;58572;48.110;19.838;2023-03-23T05:37:28;97633.28;;;7.71;70.91
70921;BME280;58572;48.110;19.838;2023-03-23T05:39:59;97621.38;;;7.82;71.11
70921;BME280;58572;48.110;19.838;2023-03-23T05:42:31;97584.59;;;7.71;70.43
70921;BME280;58572;48.110;19.838;2023-03-23T05:44:58;97619.72;;;8.11;69.49
70921;BME280;58572;48.110;19.838;2023-03-23T05:47:25;97620.25;;;8.13;69.80
70921;BME280;58572;48.110;19.838;2023-03-23T05:49:52;97539.97;;;7.58;69.73
70921;BME280;58572;48.110;19.838;2023-03-23T05:52:19;97640.75;;;8.60;69.24
70921;BME280;58572;48.110;19.838;2023-03-23T05:54:49;97621.47;;;9.21;66.78
70921;BME280;58572;48.110;19.838;2023-03-23T05:57:18;97617.75;;;9.12;67.46
70921;BME280;58572;48.110;19.838;2023-03-23T05:59:47;97624.78;;;9.13;66.64
70921;BME280;58572;48.110;19.838;2023-03-23T06:02:14;97619.56;;;8.72;68.82
70921;BME280;58572;48.110;19.838;2023-03-23T06:04:41;97619.19;;;8.94;69.26
70921;BME280;58572;48.110;19.838;2023-03-23T06:07:08;97625.47;;;8.84;67.65
70921;BME280;58572;48.110;19.838;2023-03-23T06:09:38;97631.78;;;8.70;69.28
70921;BME280;58572;48.110;19.838;2023-03-23T06:12:06;97626.94;;;9.16;67.78
70921;BME280;58572;48.110;19.838;2023-03-23T06:14:35;97575.53;;;8.95;66.85
70921;BME280;58572;48.110;19.838;2023-03-23T06:17:03;97620.97;;;9.58;65.58
70921;BME280;58572;48.110;19.838;2023-03-23T06:19:30;97629.88;;;9.64;65.29
70921;BME280;58572;48.110;19.838;2023-03-23T06:21:59;97631.53;;;9.59;66.52
70921;BME280;58572;48.110;19.838;2023-03-23T06:24:27;97627.03;;;10.42;62.81
70921;BME280;58572;48.110;19.838;2023-03-23T06:26:54;97618.13;;;10.60;62.71
70921;BME280;58572;48.110;19.838;2023-03-23T06:29:21;97626.28;;;10.60;62.28
70921;BME280;58572;48.110;19.838;2023-03-23T06:31:53;97623.44;;;11.13;62.34
70921;BME280;58572;48.110;19.838;2023-03-23T06:34:21;97630.59;;;11.46;59.37
70921;BME280;58572;48.110;19.838;2023-03-23T06:36:49;97628.09;;;12.01;58.33
70921;BME280;58572;48.110;19.838;2023-03-23T06:39:16;97630.00;;;11.49;61.37
70921;BME280;58572;48.110;19.838;2023-03-23T06:41:43;97599.91;;;11.22;60.97
70921;BME280;58572;48.110;19.838;2023-03-23T06:44:10;97576.00;;;11.38;59.88
70921;BME280;58572;48.110;19.838;2023-03-23T06:46:38;97633.00;;;12.18;58.86
70921;BME280;58572;48.110;19.838;2023-03-23T06:49:08;97630.75;;;12.53;58.60
70921;BME280;58572;48.110;19.838;2023-03-23T06:51:35;97620.16;;;12.05;59.31
70921;BME280;58572;48.110;19.838;2023-03-23T06:54:03;97638.72;;;12.63;58.44
70921;BME280;58572;48.110;19.838;2023-03-23T06:56:30;97657.31;;;13.02;57.89
70921;BME280;58572;48.110;19.838;2023-03-23T06:58:57;97670.25;;;13.24;56.23
70921;BME280;58572;48.110;19.838;2023-03-23T07:01:24;97667.00;;;12.67;58.91
70921;BME280;58572;48.110;19.838;2023-03-23T07:03:53;97661.88;;;12.93;56.77
70921;BME280;58572;48.110;19.838;2023-03-23T07:06:23;97658.50;;;13.09;55.69
70921;BME280;58572;48.110;19.838;2023-03-23T07:08:51;97653.22;;;13.40;53.88
70921;BME280;58572;48.110;19.838;2023-03-23T07:11:18;97639.53;;;13.18;55.75
70921;BME280;58572;48.110;19.838;2023-03-23T07:13:45;97647.41;;;13.69;55.88
70921;BME280;58572;48.110;19.838;2023-03-23T07:16:12;97653.22;;;13.40;57.30
70921;BME280;58572;48.110;19.838;2023-03-23T07:18:39;97622.72;;;13.25;55.75
70921;BME280;58572;48.110;19.838;2023-03-23T07:21:06;97654.78;;;13.69;54.03
70921;BME280;58572;48.110;19.838;2023-03-23T07:23:35;97534.31;;;12.49;54.53
70921;BME280;58572;48.110;19.838;2023-03-23T07:26:02;97662.16;;;13.32;53.13
70921;BME280;58572;48.110;19.838;2023-03-23T07:28:30;97657.56;;;13.55;54.01
70921;BME280;58572;48.110;19.838;2023-03-23T07:30:57;97649.38;;;13.41;52.21
70921;BME280;58572;48.110;19.838;2023-03-23T07:33:25;97658.03;;;13.71;52.49
70921;BME280;58572;48.110;19.838;2023-03-23T07:35:52;97660.44;;;13.95;51.56
70921;BME280;58572;48.110;19.838;2023-03-23T07:38:19;97660.50;;;13.59;53.06
70921;BME280;58572;48.110;19.838;2023-03-23T07:40:48;97669.88;;;13.66;52.50
70921;BME280;58572;48.110;19.838;2023-03-23T07:43:15;97666.25;;;13.43;53.75
70921;BME280;58572;48.110;19.838;2023-03-23T07:45:42;97671.41;;;13.59;50.17
70921;BME280;58572;48.110;19.838;2023-03-23T07:48:09;97670.81;;;14.06;49.62
70921;BME280;58572;48.110;19.838;2023-03-23T07:50:36;97562.91;;;13.73;48.32
70921;BME280;58572;48.110;19.838;2023-03-23T07:53:03;97677.03;;;14.21;50.41
70921;BME280;58572;48.110;19.838;2023-03-23T07:55:30;97668.25;;;14.55;47.56
70921;BME280;58572;48.110;19.838;2023-03-23T07:57:59;97668.44;;;14.36;49.93
70921;BME280;58572;48.110;19.838;2023-03-23T08:00:26;97669.56;;;14.57;50.81
70921;BME280;58572;48.110;19.838;2023-03-23T08:02:56;97616.09;;;14.51;49.35
70921;BME280;58572;48.110;19.838;2023-03-23T08:05:24;97649.03;;;15.25;48.62
70921;BME280;58572;48.110;19.838;2023-03-23T08:07:54;97658.50;;;14.62;48.54
70921;BME280;58572;48.110;19.838;2023-03-23T08:10:21;97655.00;;;15.27;48.81
70921;BME280;58572;48.110;19.838;2023-03-23T08:12:52;97669.56;;;14.57;50.63
70921;BME280;58572;48.110;19.838;2023-03-23T08:15:22;97675.03;;;14.57;47.64
70921;BME280;58572;48.110;19.838;2023-03-23T08:17:49;97675.47;;;15.30;48.36
70921;BME280;58572;48.110;19.838;2023-03-23T08:20:17;97688.94;;;15.66;47.41
70921;BME280;58572;48.110;19.838;2023-03-23T08:22:45;97666.38;;;16.04;47.34
70921;BME280;58572;48.110;19.838;2023-03-23T08:25:13;97664.44;;;15.78;48.14
70921;BME280;58572;48.110;19.838;2023-03-23T08:27:43;97659.34;;;16.67;47.16
70921;BME280;58572;48.110;19.838;2023-03-23T08:30:11;97664.56;;;16.16;47.90
70921;BME280;58572;48.110;19.838;2023-03-23T08:32:41;97658.31;;;17.68;45.63
70921;BME280;58572;48.110;19.838;2023-03-23T08:35:08;97657.69;;;17.71;41.06
70921;BME280;58572;48.110;19.838;2023-03-23T08:37:36;97664.03;;;17.04;44.02
70921;BME280;58572;48.110;19.838;2023-03-23T08:40:05;97666.25;;;17.70;42.33
70921;BME280;58572;48.110;19.838;2023-03-23T08:42:35;97643.81;;;17.59;42.98
70921;BME280;58572;48.110;19.838;2023-03-23T08:45:03;97671.34;;;16.91;44.24
70921;BME280;58572;48.110;19.838;2023-03-23T08:47:31;97665.78;;;17.89;41.03
70921;BME280;58572;48.110;19.838;2023-03-23T08:49:59;97657.47;;;18.30;42.56
70921;BME280;58572;48.110;19.838;2023-03-23T08:52:27;97668.81;;;17.75;41.88
70921;BME280;58572;48.110;19.838;2023-03-23T08:54:55;97666.66;;;18.34;42.52
70921;BME280;58572;48.110;19.838;2023-03-23T08:57:22;97662.25;;;18.87;40.43
70921;BME280;58572;48.110;19.838;2023-03-23T08:59:49;97660.59;;;16.60;40.53
70921;BME280;58572;48.110;19.838;2023-03-23T09:02:17;97661.38;;;17.16;43.32
70921;BME280;58572;48.110;19.838;2023-03-23T09:04:45;97666.91;;;16.52;44.52
70921;BME280;58572;48.110;19.838;2023-03-23T09:07:13;97658.06;;;18.69;37.37
70921;BME280;58572;48.110;19.838;2023-03-23T09:09:41;97655.78;;;19.44;38.97
70921;BME280;58572;48.110;19.838;2023-03-23T09:12:09;97643.81;;;20.60;38.23
70921;BME280;58572;48.110;19.838;2023-03-23T09:14:37;97574.09;;;20.35;35.14
70921;BME280;58572;48.110;19.838;2023-03-23T09:17:05;97645.50;;;20.21;38.12
70921;BME280;58572;48.110;19.838;2023-03-23T09:19:33;97599.13;;;19.99;38.01
70921;BME280;58572;48.110;19.838;2023-03-23T09:22:01;97642.56;;;20.58;34.81
70921;BME280;58572;48.110;19.838;2023-03-23T09:24:31;97635.00;;;20.70;35.40
70921;BME280;58572;48.110;19.838;2023-03-23T09:26:58;97653.22;;;19.88;33.45
70921;BME280;58572;48.110;19.838;2023-03-23T09:29:26;97643.22;;;21.30;35.06
70921;BME280;58572;48.110;19.838;2023-03-23T09:31:53;97646.41;;;21.48;34.50
70921;BME280;58572;48.110;19.838;2023-03-23T09:34:21;97648.13;;;21.21;35.86
70921;BME280;58572;48.110;19.838;2023-03-23T09:36:49;97665.69;;;19.08;34.15
70921;BME280;58572;48.110;19.838;2023-03-23T09:39:17;97640.59;;;20.58;36.92
70921;BME280;58572;48.110;19.838;2023-03-23T09:42:00;97641.53;;;21.25;35.90
70921;BME280;58572;48.110;19.838;2023-03-23T09:44:41;97655.97;;;19.75;34.05
70921;BME280;58572;48.110;19.838;2023-03-23T09:47:16;97532.50;;;18.43;34.49
70921;BME280;58572;48.110;19.838;2023-03-23T09:49:56;97636.09;;;20.82;33.25
70921;BME280;58572;48.110;19.838;2023-03-23T09:52:32;97637.75;;;21.49;31.86
70921;BME280;58572;48.110;19.838;2023-03-23T09:55:03;97635.09;;;21.37;33.16
70921;BME280;58572;48.110;19.838;2023-03-23T09:57:37;97618.88;;;21.90;32.06
70921;BME280;58572;48.110;19.838;2023-03-23T10:00:12;97629.25;;;21.23;33.38
70921;BME280;58572;48.110;19.838;2023-03-23T10:02:48;97635.41;;;19.73;34.13
70921;BME280;58572;48.110;19.838;2023-03-23T10:05:34;97625.63;;;21.38;33.28
70921;BME280;58572;48.110;19.838;2023-03-23T10:08:05;97633.25;;;20.94;33.55
70921;BME280;58572;48.110;19.838;2023-03-23T10:10:53;97550.78;;;20.80;32.64
70921;BME280;58572;48.110;19.838;2023-03-23T10:13:36;97612.53;;;20.40;33.10
70921;BME280;58572;48.110;19.838;2023-03-23T10:16:10;97637.81;;;19.74;33.19
70921;BME280;58572;48.110;19.838;2023-03-23T10:18:41;97614.78;;;21.84;32.94
70921;BME280;58572;48.110;19.838;2023-03-23T10:21:13;97609.25;;;21.14;32.17
70921;BME280;58572;48.110;19.838;2023-03-23T10:23:49;97622.16;;;20.47;34.48
70921;BME280;58572;48.110;19.838;2023-03-23T10:26:34;97606.28;;;22.54;32.29
70921;BME280;58572;48.110;19.838;2023-03-23T10:29:16;97581.56;;;19.63;34.05
70921;BME280;58572;48.110;19.838;2023-03-23T10:31:47;97631.41;;;19.83;34.33
70921;BME280;58572;48.110;19.838;2023-03-23T10:34:20;97617.63;;;20.70;34.50
70921;BME280;58572;48.110;19.838;2023-03-23T10:36:55;97631.44;;;20.26;34.95
70921;BME280;58572;48.110;19.838;2023-03-23T10:39:26;97629.66;;;21.09;33.37
70921;BME280;58572;48.110;19.838;2023-03-23T10:41:55;97542.38;;;21.82;32.70
70921;BME280;58572;48.110;19.838;2023-03-23T10:44:29;97617.94;;;21.47;31.42
70921;BME280;58572;48.110;19.838;2023-03-23T10:47:01;97616.41;;;21.85;33.62
70921;BME280;58572;48.110;19.838;2023-03-23T10:49:34;97631.63;;;19.77;35.99
70921;BME280;58572;48.110;19.838;2023-03-23T10:52:11;97633.66;;;20.49;34.54
70921;BME280;58572;48.110;19.838;2023-03-23T10:54:49;97615.28;;;22.05;32.59
70921;BME280;58572;48.110;19.838;2023-03-23T10:57:23;97614.75;;;22.84;31.95
70921;BME280;58572;48.110;19.838;2023-03-23T10:59:58;97573.81;;;22.09;32.21
70921;BME280;58572;48.110;19.838;2023-03-23T11:02:27;97618.41;;;23.11;31.21
70921;BME280;58572;48.110;19.838;2023-03-23T11:04:59;97627.34;;;20.80;32.12
70921;BME280;58572;48.110;19.838;2023-03-23T11:07:29;97611.22;;;22.41;30.92
70921;BME280;58572;48.110;19.838;2023-03-23T11:10:03;97612.75;;;23.30;30.59
70921;BME280;58572;48.110;19.838;2023-03-23T11:12:34;97604.09;;;23.09;30.29
70921;BME280;58572;48.110;19.838;2023-03-23T11:15:22;97622.63;;;20.80;31.60
70921;BME280;58572;48.110;19.838;2023-03-23T11:18:03;97605.88;;;22.52;31.61
70921;BME280;58572;48.110;19.838;2023-03-23T11:20:35;97610.06;;;22.65;30.87
70921;BME280;58572;48.110;19.838;2023-03-23T11:23:10;97602.00;;;22.14;31.17
70921;BME280;58572;48.110;19.838;2023-03-23T11:25:52;97536.38;;;21.22;30.76
70921;BME280;58572;48.110;19.838;2023-03-23T11:28:20;97574.53;;;21.86;32.35
70921;BME280;58572;48.110;19.838;2023-03-23T11:30:53;97603.81;;;22.91;30.22
70921;BME280;58572;48.110;19.838;2023-03-23T11:33:20;97594.47;;;20.90;33.79
70921;BME280;58572;48.110;19.838;2023-03-23T11:35:52;97583.63;;;21.87;31.31
70921;BME280;58572;48.110;19.838;2023-03-23T11:38:22;97588.59;;;21.43;33.41
70921;BME280;58572;48.110;19.838;2023-03-23T11:40:54;97590.88;;;19.99;35.24
70921;BME280;58572;48.110;19.838;2023-03-23T11:43:23;97580.69;;;22.60;30.45
70921;BME280;58572;48.110;19.838;2023-03-23T11:46:01;97593.97;;;23.20;30.11
70921;BME280;58572;48.110;19.838;2023-03-23T11:48:45;97584.06;;;22.73;32.42
70921;BME280;58572;48.110;19.838;2023-03-23T11:51:19;97523.44;;;23.81;31.48
70921;BME280;58572;48.110;19.838;2023-03-23T11:53:52;97569.25;;;25.12;28.50
70921;BME280;58572;48.110;19.838;2023-03-23T11:56:24;97561.34;;;25.94;28.33
70921;BME280;58572;48.110;19.838;2023-03-23T11:58:53;97578.94;;;23.21;29.08
70921;BME280;58572;48.110;19.838;2023-03-23T12:01:45;97577.53;;;23.61;31.26
70921;BME280;58572;48.110;19.838;2023-03-23T12:04:34;97583.56;;;21.29;32.96
70921;BME280;58572;48.110;19.838;2023-03-23T12:07:23;97568.31;;;23.27;30.56
70921;BME280;58572;48.110;19.838;2023-03-23T12:10:01;97564.97;;;23.14;31.17
70921;BME280;58572;48.110;19.838;2023-03-23T12:12:37;97540.47;;;24.50;29.24
70921;BME280;58572;48.110;19.838;2023-03-23T12:15:18;97550.78;;;25.49;30.84
70921;BME280;58572;48.110;19.838;2023-03-23T12:17:53;97542.16;;;24.21;30.68
70921;BME280;58572;48.110;19.838;2023-03-23T12:20:31;97550.91;;;23.89;31.67
70921;BME280;58572;48.110;19.838;2023-03-23T12:23:11;97477.50;;;24.24;30.25
70921;BME280;58572;48.110;19.838;2023-03-23T12:28:39;97545.38;;;23.89;31.74
70921;BME280;58572;48.110;19.838;2023-03-23T12:31:15;97540.41;;;23.72;32.67
70921;BME280;58572;48.110;19.838;2023-03-23T12:33:53;97515.97;;;25.94;29.40
70921;BME280;58572;48.110;19.838;2023-03-23T12:36:32;97516.13;;;26.68;28.94
70921;BME280;58572;48.110;19.838;2023-03-23T12:42:19;97519.91;;;23.84;32.11
70921;BME280;58572;48.110;19.838;2023-03-23T12:44:52;97529.72;;;24.08;31.82
70921;BME280;58572;48.110;19.838;2023-03-23T12:47:34;97516.41;;;24.68;30.75
70921;BME280;58572;48.110;19.838;2023-03-23T12:50:07;97519.91;;;24.58;29.29
70921;BME280;58572;48.110;19.838;2023-03-23T12:52:41;97520.16;;;24.02;31.17
70921;BME280;58572;48.110;19.838;2023-03-23T12:55:17;97523.09;;;22.73;32.58
70921;BME280;58572;48.110;19.838;2023-03-23T12:57:47;97522.53;;;24.03;32.23
70921;BME280;58572;48.110;19.838;2023-03-23T13:00:18;97510.28;;;24.45;32.12
70921;BME280;58572;48.110;19.838;2023-03-23T13:02:53;97518.38;;;24.64;29.99
70921;BME280;58572;48.110;19.838;2023-03-23T13:05:34;97520.13;;;23.38;33.03
70921;BME280;58572;48.110;19.838;2023-03-23T13:08:12;97512.16;;;24.81;31.70
70921;BME280;58572;48.110;19.838;2023-03-23T13:10:45;97518.28;;;23.79;32.75
70921;BME280;58572;48.110;19.838;2023-03-23T13:13:16;97518.88;;;23.06;32.16
70921;BME280;58572;48.110;19.838;2023-03-23T13:15:56;97511.53;;;22.90;31.77
70921;BME280;58572;48.110;19.838;2023-03-23T13:18:37;97516.94;;;22.83;33.06
70921;BME280;58572;48.110;19.838;2023-03-23T13:21:14;97449.97;;;21.86;30.66
70921;BME280;58572;48.110;19.838;2023-03-23T13:23:47;97502.34;;;24.47;30.53
70921;BME280;58572;48.110;19.838;2023-03-23T13:26:19;97400.56;;;25.77;29.99
70921;BME280;58572;48.110;19.838;2023-03-23T13:28:58;97488.00;;;25.62;27.69